PWSweather.com
Personal Weather Stations
Station Observations
KCAFRAZI5
West End Drive Area, Frazier Park, CA 93225

West End Drive AreaFrazier Park, CA 93225

Lat: 34.82109, Lon: -118.96053

Elevation: 4940

Station Type: Davis Vantage Pro 2

http://www.fpweather.com

High Low Average
Temperature 83.6°F28.7°C 47.6°F8.7°C 68.2°F20.1°C
Dew Point 37.9°F3.3°C 24.3°F-4.3°C 32.5°F0.3°C
Winds 11.0 mph 17.7 kmh Calm Calm 4.0 mph S6.4 kmh S
Wind Gusts 13.0 mph20.9 kmh -- 7.0 mph11.3 kmh
Humidity 49% 15% 29%
Pressure 29.70 in1005.8 mb 29.61 in1002.7 mb -
Precipitation 0.00 in0.0 mm - -
Hour Temp Dew Point Humidity Winds Wind Gusts Pressure Precip Precip Rate Daily Precip Total
12:00 AM 57.1°F13.9°C 33.6°F0.9°C 41% 5.0 mph S8.0 kmh S 6.0 mph9.7 kmh 29.66 in1004.4 mb 0.00 in0.0 mm 0.00 in0.0 mm 0.00 in0.0 mm
12:15 AM 57.1°F13.9°C 33.6°F0.9°C 41% 6.0 mph S9.7 kmh S 9.0 mph14.5 kmh 29.66 in1004.4 mb 0.00 in0.0 mm 0.00 in0.0 mm 0.00 in0.0 mm
12:30 AM 56.2°F13.4°C 33.4°F0.8°C 42% 5.0 mph S8.0 kmh S 7.0 mph11.3 kmh 29.65 in1004.1 mb 0.00 in0.0 mm 0.00 in0.0 mm 0.00 in0.0 mm
12:45 AM 55.3°F12.9°C 32.6°F0.3°C 42% 4.0 mph SSE6.4 kmh SSE 10.0 mph16.1 kmh 29.65 in1004.1 mb 0.00 in0.0 mm 0.00 in0.0 mm 0.00 in0.0 mm
01:00 AM 54.4°F12.4°C 32.4°F0.2°C 43% 3.0 mph SSE4.8 kmh SSE 9.0 mph14.5 kmh 29.65 in1004.1 mb 0.00 in0.0 mm 0.00 in0.0 mm 0.00 in0.0 mm
01:15 AM 53.8°F12.1°C 31.3°F-0.4°C 42% 6.0 mph S9.7 kmh S 9.0 mph14.5 kmh 29.65 in1004.1 mb 0.00 in0.0 mm 0.00 in0.0 mm 0.00 in0.0 mm
01:30 AM 54.0°F12.2°C 31.5°F-0.3°C 42% 6.0 mph SSE9.7 kmh SSE 9.0 mph14.5 kmh 29.66 in1004.4 mb 0.00 in0.0 mm 0.00 in0.0 mm 0.00 in0.0 mm
01:45 AM 53.2°F11.8°C 30.1°F-1.1°C 41% 5.0 mph S8.0 kmh S 6.0 mph9.7 kmh 29.65 in1004.1 mb 0.00 in0.0 mm 0.00 in0.0 mm 0.00 in0.0 mm
02:00 AM 53.1°F11.7°C 29.4°F-1.4°C 40% 9.0 mph S14.5 kmh S 13.0 mph20.9 kmh 29.65 in1004.1 mb 0.00 in0.0 mm 0.00 in0.0 mm 0.00 in0.0 mm
02:15 AM 52.1°F11.2°C 29.1°F-1.6°C 41% 9.0 mph S14.5 kmh S 9.0 mph14.5 kmh 29.65 in1004.1 mb 0.00 in0.0 mm 0.00 in0.0 mm 0.00 in0.0 mm
02:30 AM 51.5°F10.8°C 28.6°F-1.9°C 41% 5.0 mph S8.0 kmh S 10.0 mph16.1 kmh 29.66 in1004.4 mb 0.00 in0.0 mm 0.00 in0.0 mm 0.00 in0.0 mm
02:45 AM 50.7°F10.4°C 28.5°F-1.9°C 42% 11.0 mph SSE17.7 kmh SSE 12.0 mph19.3 kmh 29.66 in1004.4 mb 0.00 in0.0 mm 0.00 in0.0 mm 0.00 in0.0 mm
03:00 AM 50.6°F10.3°C 27.8°F-2.3°C 41% 6.0 mph SSE9.7 kmh SSE 9.0 mph14.5 kmh 29.66 in1004.4 mb 0.00 in0.0 mm 0.00 in0.0 mm 0.00 in0.0 mm
03:15 AM 50.7°F10.4°C 27.3°F-2.6°C 40% 11.0 mph S17.7 kmh S 12.0 mph19.3 kmh 29.66 in1004.4 mb 0.00 in0.0 mm 0.00 in0.0 mm 0.00 in0.0 mm
03:30 AM 50.1°F10.1°C 26.7°F-2.9°C 40% 6.0 mph S9.7 kmh S 10.0 mph16.1 kmh 29.67 in1004.7 mb 0.00 in0.0 mm 0.00 in0.0 mm 0.00 in0.0 mm
03:45 AM 49.7°F9.8°C 26.4°F-3.1°C 40% 6.0 mph SSE9.7 kmh SSE 10.0 mph16.1 kmh 29.66 in1004.4 mb 0.00 in0.0 mm 0.00 in0.0 mm 0.00 in0.0 mm
04:00 AM 49.2°F9.6°C 25.9°F-3.4°C 40% 8.0 mph S12.9 kmh S 10.0 mph16.1 kmh 29.67 in1004.7 mb 0.00 in0.0 mm 0.00 in0.0 mm 0.00 in0.0 mm
04:15 AM 49.0°F9.4°C 25.8°F-3.4°C 40% 9.0 mph S14.5 kmh S 10.0 mph16.1 kmh 29.67 in1004.7 mb 0.00 in0.0 mm 0.00 in0.0 mm 0.00 in0.0 mm
04:30 AM 48.5°F9.2°C 25.9°F-3.4°C 41% 5.0 mph S8.0 kmh S 11.0 mph17.7 kmh 29.67 in1004.7 mb 0.00 in0.0 mm 0.00 in0.0 mm 0.00 in0.0 mm
04:45 AM 47.9°F8.8°C 25.4°F-3.7°C 41% 10.0 mph S16.1 kmh S 10.0 mph16.1 kmh 29.67 in1004.7 mb 0.00 in0.0 mm 0.00 in0.0 mm 0.00 in0.0 mm
05:00 AM 48.8°F9.3°C 25.0°F-3.9°C 39% 5.0 mph S8.0 kmh S 7.0 mph11.3 kmh 29.68 in1005.1 mb 0.00 in0.0 mm 0.00 in0.0 mm 0.00 in0.0 mm
05:15 AM 48.1°F8.9°C 25.5°F-3.6°C 41% 8.0 mph SSE12.9 kmh SSE 10.0 mph16.1 kmh 29.67 in1004.7 mb 0.00 in0.0 mm 0.00 in0.0 mm 0.00 in0.0 mm
05:30 AM 47.6°F8.7°C 25.1°F-3.8°C 41% 7.0 mph S11.3 kmh S 9.0 mph14.5 kmh 29.68 in1005.1 mb 0.00 in0.0 mm 0.00 in0.0 mm 0.00 in0.0 mm
05:45 AM 47.6°F8.7°C 25.1°F-3.8°C 41% 9.0 mph S14.5 kmh S 12.0 mph19.3 kmh 29.68 in1005.1 mb 0.00 in0.0 mm 0.00 in0.0 mm 0.00 in0.0 mm
06:00 AM 47.8°F8.8°C 24.7°F-4.1°C 40% 7.0 mph S11.3 kmh S 9.0 mph14.5 kmh 29.68 in1005.1 mb 0.00 in0.0 mm 0.00 in0.0 mm 0.00 in0.0 mm
06:15 AM 48.2°F9.0°C 24.4°F-4.2°C 39% 10.0 mph SE16.1 kmh SE 11.0 mph17.7 kmh 29.68 in1005.1 mb 0.00 in0.0 mm 0.00 in0.0 mm 0.00 in0.0 mm
06:30 AM 49.2°F9.6°C 25.3°F-3.7°C 39% 6.0 mph S9.7 kmh S 7.0 mph11.3 kmh 29.70 in1005.8 mb 0.00 in0.0 mm 0.00 in0.0 mm 0.00 in0.0 mm
06:45 AM 50.7°F10.4°C 25.4°F-3.7°C 37% 6.0 mph S9.7 kmh S 8.0 mph12.9 kmh 29.70 in1005.8 mb 0.00 in0.0 mm 0.00 in0.0 mm 0.00 in0.0 mm
07:00 AM 53.2°F11.8°C 25.6°F-3.6°C 34% 9.0 mph S14.5 kmh S 9.0 mph14.5 kmh 29.69 in1005.4 mb 0.00 in0.0 mm 0.00 in0.0 mm 0.00 in0.0 mm
07:15 AM 55.9°F13.3°C 25.7°F-3.5°C 31% 5.0 mph S8.0 kmh S 9.0 mph14.5 kmh 29.67 in1004.7 mb 0.00 in0.0 mm 0.00 in0.0 mm 0.00 in0.0 mm
07:30 AM 59.7°F15.4°C 25.7°F-3.5°C 27% 5.0 mph S8.0 kmh S 9.0 mph14.5 kmh 29.69 in1005.4 mb 0.00 in0.0 mm 0.00 in0.0 mm 0.00 in0.0 mm
07:45 AM 63.6°F17.6°C 27.2°F-2.7°C 25% 5.0 mph SSE8.0 kmh SSE 7.0 mph11.3 kmh 29.67 in1004.7 mb 0.00 in0.0 mm 0.00 in0.0 mm 0.00 in0.0 mm
08:00 AM 67.9°F19.9°C 26.6°F-3.0°C 21% 6.0 mph SSE9.7 kmh SSE 9.0 mph14.5 kmh 29.65 in1004.1 mb 0.00 in0.0 mm 0.00 in0.0 mm 0.00 in0.0 mm
08:15 AM 71.9°F22.2°C 26.1°F-3.3°C 18% 4.0 mph SSE6.4 kmh SSE 7.0 mph11.3 kmh 29.63 in1003.4 mb 0.00 in0.0 mm 0.00 in0.0 mm 0.00 in0.0 mm
08:30 AM 75.0°F23.9°C 24.3°F-4.3°C 15% 2.0 mph S3.2 kmh S 7.0 mph11.3 kmh 29.62 in1003.0 mb 0.00 in0.0 mm 0.00 in0.0 mm 0.00 in0.0 mm
08:45 AM 75.4°F24.1°C 31.6°F-0.2°C 20% 4.0 mph N6.4 kmh N 5.0 mph8.0 kmh 29.61 in1002.7 mb 0.00 in0.0 mm 0.00 in0.0 mm 0.00 in0.0 mm
09:00 AM 74.9°F23.8°C 35.7°F2.1°C 24% 3.0 mph NNW4.8 kmh NNW 7.0 mph11.3 kmh 29.62 in1003.0 mb 0.00 in0.0 mm 0.00 in0.0 mm 0.00 in0.0 mm
09:15 AM 75.2°F24.0°C 37.0°F2.8°C 25% 5.0 mph N8.0 kmh N 6.0 mph9.7 kmh 29.62 in1003.0 mb 0.00 in0.0 mm 0.00 in0.0 mm 0.00 in0.0 mm
09:30 AM 76.1°F24.5°C 35.7°F2.1°C 23% 2.0 mph NE3.2 kmh NE 6.0 mph9.7 kmh 29.65 in1004.1 mb 0.00 in0.0 mm 0.00 in0.0 mm 0.00 in0.0 mm
09:45 AM 77.0°F25.0°C 35.3°F1.8°C 22% 3.0 mph NW4.8 kmh NW 7.0 mph11.3 kmh 29.64 in1003.7 mb 0.00 in0.0 mm 0.00 in0.0 mm 0.00 in0.0 mm
10:00 AM 78.4°F25.8°C 36.5°F2.5°C 22% 6.0 mph N9.7 kmh N 6.0 mph9.7 kmh 29.63 in1003.4 mb 0.00 in0.0 mm 0.00 in0.0 mm 0.00 in0.0 mm
10:15 AM 79.7°F26.5°C 35.1°F1.7°C 20% 3.0 mph NNE4.8 kmh NNE 10.0 mph16.1 kmh 29.63 in1003.4 mb 0.00 in0.0 mm 0.00 in0.0 mm 0.00 in0.0 mm
10:30 AM 79.5°F26.4°C 33.7°F0.9°C 19% 5.0 mph 8.0 kmh 9.0 mph14.5 kmh 29.64 in1003.7 mb 0.00 in0.0 mm 0.00 in0.0 mm 0.00 in0.0 mm
10:45 AM 79.7°F26.5°C 33.8°F1.0°C 19% 9.0 mph NW14.5 kmh NW 10.0 mph16.1 kmh 29.64 in1003.7 mb 0.00 in0.0 mm 0.00 in0.0 mm 0.00 in0.0 mm
11:00 AM 80.5°F26.9°C 33.1°F0.6°C 18% 7.0 mph NNE11.3 kmh NNE 10.0 mph16.1 kmh 29.64 in1003.7 mb 0.00 in0.0 mm 0.00 in0.0 mm 0.00 in0.0 mm
11:15 AM 80.8°F27.1°C 32.0°F0.0°C 17% 7.0 mph N11.3 kmh N 12.0 mph19.3 kmh 29.63 in1003.4 mb 0.00 in0.0 mm 0.00 in0.0 mm 0.00 in0.0 mm
11:30 AM 81.4°F27.4°C 32.5°F0.3°C 17% 3.0 mph N4.8 kmh N 11.0 mph17.7 kmh 29.66 in1004.4 mb 0.00 in0.0 mm 0.00 in0.0 mm 0.00 in0.0 mm
11:45 AM 82.4°F28.0°C 33.3°F0.7°C 17% 2.0 mph NW3.2 kmh NW 6.0 mph9.7 kmh 29.67 in1004.7 mb 0.00 in0.0 mm 0.00 in0.0 mm 0.00 in0.0 mm
12:00 PM 82.8°F28.2°C 33.6°F0.9°C 17% 3.0 mph 4.8 kmh 7.0 mph11.3 kmh 29.66 in1004.4 mb 0.00 in0.0 mm 0.00 in0.0 mm 0.00 in0.0 mm
12:15 PM 83.0°F28.3°C 33.7°F0.9°C 17% 4.0 mph NW6.4 kmh NW 7.0 mph11.3 kmh 29.66 in1004.4 mb 0.00 in0.0 mm 0.00 in0.0 mm 0.00 in0.0 mm
12:30 PM 82.8°F28.2°C 33.6°F0.9°C 17% 4.0 mph N6.4 kmh N 9.0 mph14.5 kmh 29.68 in1005.1 mb 0.00 in0.0 mm 0.00 in0.0 mm 0.00 in0.0 mm
12:45 PM 82.2°F27.9°C 34.5°F1.4°C 18% 3.0 mph E4.8 kmh E 13.0 mph20.9 kmh 29.68 in1005.1 mb 0.00 in0.0 mm 0.00 in0.0 mm 0.00 in0.0 mm
01:00 PM 83.0°F28.3°C 33.7°F0.9°C 17% 3.0 mph N4.8 kmh N 6.0 mph9.7 kmh 29.69 in1005.4 mb 0.00 in0.0 mm 0.00 in0.0 mm 0.00 in0.0 mm
01:15 PM 83.0°F28.3°C 33.7°F0.9°C 17% 7.0 mph NE11.3 kmh NE 13.0 mph20.9 kmh 29.69 in1005.4 mb 0.00 in0.0 mm 0.00 in0.0 mm 0.00 in0.0 mm
01:30 PM 83.2°F28.4°C 33.9°F1.1°C 17% 11.0 mph 17.7 kmh 12.0 mph19.3 kmh 29.68 in1005.1 mb 0.00 in0.0 mm 0.00 in0.0 mm 0.00 in0.0 mm
01:45 PM 82.8°F28.2°C 33.6°F0.9°C 17% 4.0 mph NNE6.4 kmh NNE 7.0 mph11.3 kmh 29.68 in1005.1 mb 0.00 in0.0 mm 0.00 in0.0 mm 0.00 in0.0 mm
02:00 PM 83.6°F28.7°C 35.7°F2.1°C 18% 4.0 mph WNW6.4 kmh WNW 10.0 mph16.1 kmh 29.68 in1005.1 mb 0.00 in0.0 mm 0.00 in0.0 mm 0.00 in0.0 mm
02:15 PM 82.8°F28.2°C 35.0°F1.7°C 18% 9.0 mph NW14.5 kmh NW 9.0 mph14.5 kmh 29.68 in1005.1 mb 0.00 in0.0 mm 0.00 in0.0 mm 0.00 in0.0 mm
02:30 PM 83.2°F28.4°C 33.9°F1.1°C 17% 4.0 mph NW6.4 kmh NW 6.0 mph9.7 kmh 29.69 in1005.4 mb 0.00 in0.0 mm 0.00 in0.0 mm 0.00 in0.0 mm
02:45 PM 83.2°F28.4°C 33.9°F1.1°C 17% 6.0 mph N9.7 kmh N 12.0 mph19.3 kmh 29.69 in1005.4 mb 0.00 in0.0 mm 0.00 in0.0 mm 0.00 in0.0 mm
03:00 PM 83.0°F28.3°C 37.8°F3.2°C 20% 2.0 mph NNE3.2 kmh NNE 6.0 mph9.7 kmh 29.69 in1005.4 mb 0.00 in0.0 mm 0.00 in0.0 mm 0.00 in0.0 mm
03:15 PM 82.4°F28.0°C 33.3°F0.7°C 17% Calm Calm 4.0 mph6.4 kmh 29.69 in1005.4 mb 0.00 in0.0 mm 0.00 in0.0 mm 0.00 in0.0 mm
03:30 PM 82.8°F28.2°C 37.7°F3.2°C 20% 5.0 mph N8.0 kmh N 6.0 mph9.7 kmh 29.70 in1005.8 mb 0.00 in0.0 mm 0.00 in0.0 mm 0.00 in0.0 mm
03:45 PM 82.0°F27.8°C 37.0°F2.8°C 20% 3.0 mph NNE4.8 kmh NNE 7.0 mph11.3 kmh 29.69 in1005.4 mb 0.00 in0.0 mm 0.00 in0.0 mm 0.00 in0.0 mm
04:00 PM 81.4°F27.4°C 35.2°F1.8°C 19% 2.0 mph NNW3.2 kmh NNW 6.0 mph9.7 kmh 29.70 in1005.8 mb 0.00 in0.0 mm 0.00 in0.0 mm 0.00 in0.0 mm
04:15 PM 83.4°F28.6°C 34.1°F1.2°C 17% Calm Calm 4.0 mph6.4 kmh 29.70 in1005.8 mb 0.00 in0.0 mm 0.00 in0.0 mm 0.00 in0.0 mm
04:30 PM 83.0°F28.3°C 33.7°F0.9°C 17% 2.0 mph W3.2 kmh W 6.0 mph9.7 kmh 29.69 in1005.4 mb 0.00 in0.0 mm 0.00 in0.0 mm 0.00 in0.0 mm
04:45 PM 82.2°F27.9°C 34.5°F1.4°C 18% Calm Calm 4.0 mph6.4 kmh 29.70 in1005.8 mb 0.00 in0.0 mm 0.00 in0.0 mm 0.00 in0.0 mm
05:00 PM 82.2°F27.9°C 34.5°F1.4°C 18% Calm Calm 5.0 mph8.0 kmh 29.69 in1005.4 mb 0.00 in0.0 mm 0.00 in0.0 mm 0.00 in0.0 mm
05:15 PM 81.8°F27.7°C 34.2°F1.2°C 18% Calm Calm 2.0 mph3.2 kmh 29.69 in1005.4 mb 0.00 in0.0 mm 0.00 in0.0 mm 0.00 in0.0 mm
05:30 PM 81.0°F27.2°C 34.9°F1.6°C 19% 4.0 mph N6.4 kmh N 6.0 mph9.7 kmh 29.69 in1005.4 mb 0.00 in0.0 mm 0.00 in0.0 mm 0.00 in0.0 mm
05:45 PM 80.3°F26.8°C 34.3°F1.3°C 19% Calm Calm 5.0 mph8.0 kmh 29.70 in1005.8 mb 0.00 in0.0 mm 0.00 in0.0 mm 0.00 in0.0 mm
06:00 PM 79.5°F26.4°C 35.0°F1.7°C 20% 2.0 mph WNW3.2 kmh WNW 4.0 mph6.4 kmh 29.70 in1005.8 mb 0.00 in0.0 mm 0.00 in0.0 mm 0.00 in0.0 mm
06:15 PM 79.4°F26.3°C 33.6°F0.9°C 19% 3.0 mph WSW4.8 kmh WSW 4.0 mph6.4 kmh 29.70 in1005.8 mb 0.00 in0.0 mm 0.00 in0.0 mm 0.00 in0.0 mm
06:30 PM 78.8°F26.0°C 34.4°F1.3°C 20% 3.0 mph SE4.8 kmh SE 3.0 mph4.8 kmh 29.67 in1004.7 mb 0.00 in0.0 mm 0.00 in0.0 mm 0.00 in0.0 mm
06:45 PM 77.9°F25.5°C 34.9°F1.6°C 21% 2.0 mph WNW3.2 kmh WNW 3.0 mph4.8 kmh 29.67 in1004.7 mb 0.00 in0.0 mm 0.00 in0.0 mm 0.00 in0.0 mm
07:00 PM 77.3°F25.2°C 35.5°F1.9°C 22% Calm Calm 1.0 mph1.6 kmh 29.68 in1005.1 mb 0.00 in0.0 mm 0.00 in0.0 mm 0.00 in0.0 mm
07:15 PM 76.4°F24.7°C 35.9°F2.2°C 23% 3.0 mph SW4.8 kmh SW 3.0 mph4.8 kmh 29.69 in1005.4 mb 0.00 in0.0 mm 0.00 in0.0 mm 0.00 in0.0 mm
07:30 PM 75.7°F24.3°C 37.4°F3.0°C 25% Calm Calm 1.0 mph1.6 kmh 29.62 in1003.0 mb 0.00 in0.0 mm 0.00 in0.0 mm 0.00 in0.0 mm
07:45 PM 74.9°F23.8°C 33.5°F0.8°C 22% Calm Calm 3.0 mph4.8 kmh 29.62 in1003.0 mb 0.00 in0.0 mm 0.00 in0.0 mm 0.00 in0.0 mm
08:00 PM 74.0°F23.3°C 33.9°F1.1°C 23% Calm Calm -- 29.62 in1003.0 mb 0.00 in0.0 mm 0.00 in0.0 mm 0.00 in0.0 mm
08:15 PM 72.6°F22.6°C 34.8°F1.6°C 25% 1.0 mph NE1.6 kmh NE 2.0 mph3.2 kmh 29.63 in1003.4 mb 0.00 in0.0 mm 0.00 in0.0 mm 0.00 in0.0 mm
08:30 PM 71.1°F21.7°C 35.5°F1.9°C 27% 1.0 mph NE1.6 kmh NE 1.0 mph1.6 kmh 29.61 in1002.7 mb 0.00 in0.0 mm 0.00 in0.0 mm 0.00 in0.0 mm
08:45 PM 69.4°F20.8°C 36.7°F2.6°C 30% Calm Calm -- 29.61 in1002.7 mb 0.00 in0.0 mm 0.00 in0.0 mm 0.00 in0.0 mm
09:00 PM 68.2°F20.1°C 36.4°F2.4°C 31% Calm Calm -- 29.62 in1003.0 mb 0.00 in0.0 mm 0.00 in0.0 mm 0.00 in0.0 mm
09:15 PM 67.9°F19.9°C 36.2°F2.3°C 31% 4.0 mph S6.4 kmh S 4.0 mph6.4 kmh 29.63 in1003.4 mb 0.00 in0.0 mm 0.00 in0.0 mm 0.00 in0.0 mm
09:30 PM 67.0°F19.4°C 37.0°F2.8°C 33% Calm Calm -- 29.61 in1002.7 mb 0.00 in0.0 mm 0.00 in0.0 mm 0.00 in0.0 mm
09:45 PM 66.4°F19.1°C 37.2°F2.9°C 34% Calm Calm 4.0 mph6.4 kmh 29.62 in1003.0 mb 0.00 in0.0 mm 0.00 in0.0 mm 0.00 in0.0 mm
10:00 PM 64.8°F18.2°C 37.2°F2.9°C 36% 4.0 mph S6.4 kmh S 4.0 mph6.4 kmh 29.63 in1003.4 mb 0.00 in0.0 mm 0.00 in0.0 mm 0.00 in0.0 mm
10:15 PM 63.9°F17.7°C 36.5°F2.5°C 36% Calm Calm 1.0 mph1.6 kmh 29.63 in1003.4 mb 0.00 in0.0 mm 0.00 in0.0 mm 0.00 in0.0 mm
10:30 PM 62.5°F16.9°C 36.6°F2.6°C 38% 2.0 mph S3.2 kmh S 2.0 mph3.2 kmh 29.63 in1003.4 mb 0.00 in0.0 mm 0.00 in0.0 mm 0.00 in0.0 mm
10:45 PM 61.4°F16.3°C 36.9°F2.7°C 40% 1.0 mph SSE1.6 kmh SSE 2.0 mph3.2 kmh 29.64 in1003.7 mb 0.00 in0.0 mm 0.00 in0.0 mm 0.00 in0.0 mm
11:00 PM 60.3°F15.7°C 36.5°F2.5°C 41% Calm Calm 4.0 mph6.4 kmh 29.63 in1003.4 mb 0.00 in0.0 mm 0.00 in0.0 mm 0.00 in0.0 mm
11:15 PM 59.7°F15.4°C 36.6°F2.6°C 42% 3.0 mph S4.8 kmh S 6.0 mph9.7 kmh 29.65 in1004.1 mb 0.00 in0.0 mm 0.00 in0.0 mm 0.00 in0.0 mm
11:30 PM 58.8°F14.9°C 37.0°F2.8°C 44% 4.0 mph SSE6.4 kmh SSE 6.0 mph9.7 kmh 29.63 in1003.4 mb 0.00 in0.0 mm 0.00 in0.0 mm 0.00 in0.0 mm
11:45 PM 58.0°F14.4°C 36.8°F2.7°C 45% 3.0 mph S4.8 kmh S 4.0 mph6.4 kmh 29.63 in1003.4 mb 0.00 in0.0 mm 0.00 in0.0 mm 0.00 in0.0 mm